Dayton, OH (45417)

12:36 PM EST on February 14, 2016 (GMT -0500)
Sinclair Dayton Campus | | Change Station
CLOSE
Current Station
Personal Weather Station
Location: Dayton, OH
Elevation: 780 ft
Nearby Weather Stations

Elev 780 ft 39.76 °N, 84.20 °W | Updated 26 seconds ago

Overcast
Overcast
20.8 °F
Feels Like 10 °F
N
9.2
Wind Variable Wind from SE
Gusts 9.2 mph

Today
High -- | Low -- °F
--% Chance of Precip.
Yesterday
High -- | Low -- °F
Precip. -- in
Pressure 30.40 in
Visibility 10.0 miles
Clouds Mostly Cloudy 8500 ft
Overcast 18000 ft
Windchill 10 °F
Dew Point 6 °F
Humidity 51%
Rainfall 0.00 in
Snow Depth Not available.
7:31 AM 6:11 PM
Waxing Crescent, 43% visible
METAR KDAY 141656Z 12013KT 10SM BKN085 OVC180 M08/M15 A3034 RMK AO2 SLP294 T10831150
Pressure 30.40 in
Visibility 10.0 miles
Clouds Mostly Cloudy 8500 ft
Overcast 18000 ft
Windchill 10 °F
Dew Point 6 °F
Humidity 51%
Rainfall 0.00 in
Snow Depth Not available.
7:31 AM 6:11 PM
Waxing Crescent, 43% visible
METAR KDAY 141656Z 12013KT 10SM BKN085 OVC180 M08/M15 A3034 RMK AO2 SLP294 T10831150

10-Day Weather Forecast

Almanac

Astronomy

Feb. 14, 2016 Rise Set
Actual Time
Civil Twilight
Nautical Twilight
Astronomical Twilight
Moon
Length of Visible Light
Length of Day
Tomorrow will be .
, % of the Moon is Illuminated

Today's Extremes

State Highs State Lows

Community

WunderPhotos

Upload Photos

1,892,859 photos uploaded!

WunderBlog® & News

Nearby

Air Quality

  Air Quality AQ Index Pollutant
Not available.

Snow Depth

Station Depth Elevation

Earthquake Activity

City Distance Mag. Time & Date
Minimum magnitude displayed is 2.5.

Coastal Water Temperatures

Place Temperature

Stations

Nearby Weather Stations

Station Location Temp. Windchill Dew Point Humidity Wind Precip. Elev Updated Type
                   

Watches & Warnings

There are currently no watches in effect.